Aérodrome :
LOGIN :

S'inscrire | Disclaimer

   EN    FR    IT 

 










Légende :    VFR   VFR Marginal   IFR   IFR Intensif   IFR Très Intensif
Visi : 
Plafond : 
>= 8 km
>= 3000ft
5 à 8 km
1000 à 3000 ft
1500m à 5 km
500 à 1000 ft
800 à 1500m
200 à 500 ft
< 800m
< 200 ft
Symboles :   Orages  Brouillard  Fortes neiges  Fortes précipitations  Vent > 20 kt
SIGMETs :   Divers  Orages  Givrage  Turbulence  Onde Orograph.  Cendres Volcan.






- Altitude de l'aérodrome : 83 ft
- Code IATA : LHR


EGLL - London Heathrow

DERNIER METAR :
  • 101750Z AUTO 06008KT 350V090 9999 BKN030 OVC041 07/01 Q1012 NOSIG

METARs EXPIRÉS :
  • 101720Z AUTO 04006KT 9999 BKN033 07/02 Q1012 NOSIG
  • 101650Z AUTO 06007KT 9999 BKN029 OVC039 07/01 Q1012
  • 101620Z AUTO 06007KT 9999 -RA BKN021 OVC030 06/02 Q1012 NOSIG
  • 101550Z AUTO 05006KT 9999 -RA BKN022 BKN028 OVC035 06/03 Q1012 NOSIG

TAF TAF EGLL
Valide du 10 à 18h jusqu'au 12 à 00h UTC


101713Z 1018/1124 07010KT 9999 SCT020
BECMG 1100/1103 01007KT
BECMG 1111/1114 31010KT
PROB30
TEMPO 1112/1115 8000 -SHRA
PROB30
TEMPO 1115/1121 4000 SHRASN
PROB30
TEMPO 1121/1124 3000 SHSN



MET'MAP, la Météo Aéronautique d'un coup d'oeil ! - Copyright ORBIFLY Décembre 2007 - Disclaimer

ORBIFLY MET'MAP TEAM :

Programmation & Développement : Alexandra Zaïnal
Sur une idée originale de : Baudouin d'Aumeries
Assistance à la programmation : Marc-Olivier Méhu
Soutien technique & logistique : Manuel Goepfert

Contact : metmap@orbifly.com




SOURCES & CREDITS :

   NOAA